Aérodrome :
LOGIN :

S'inscrire | Disclaimer

   EN    FR    IT 

 










Légende :    VFR   VFR Marginal   IFR   IFR Intensif   IFR Très Intensif
Visi : 
Plafond : 
>= 8 km
>= 3000ft
5 à 8 km
1000 à 3000 ft
1500m à 5 km
500 à 1000 ft
800 à 1500m
200 à 500 ft
< 800m
< 200 ft
Symboles :   Orages  Brouillard  Fortes neiges  Fortes précipitations  Vent > 20 kt
SIGMETs :   Divers  Orages  Givrage  Turbulence  Onde Orograph.  Cendres Volcan.







- Altitude de l'aérodrome : 16 ft
- Code IATA : EAS


LESO - San Sebastian Fuenterrabia

DERNIER METAR :
  • 251100Z VRB02KT 9999 SCT016TCU SCT060 20/18 Q1022

METARs EXPIRÉS :
  • 251030Z 19003KT 160V220 9999 4000S VCSH BKN017TCU BKN060 19/19 Q1022
  • 251000Z VRB02KT 9999 BKN017TCU BKN052 18/18 Q1022
  • 250947Z 20005KT 170V230 7000 -RA BKN018TCU BKN052 18/17 Q1022
  • 250935Z 22006KT 190V270 2500 SHRA BKN018TCU BKN050 18/18 Q1022
  • 250900Z 21004KT 9999 SCT018 BKN045 18/18 Q1022
  • 250830Z 16004KT 140V200 9999 BKN018 OVC045 18/18 Q1022

TAF TAF LESO
Valide du 25 à 12h jusqu'au 26 à 12h UTC


251100Z 2512/2612 28009KT 9999 SCT018 BKN035 TX21/2513Z TN15/2606Z
TEMPO 2512/2608 4000 -RA BKN014
PROB40
TEMPO 2512/2521 3000 SHRA BKN014TCU
Pas de NOTAMs connus pour ce terrain.



MET'MAP, la Météo Aéronautique d'un coup d'oeil ! - Copyright ORBIFLY Décembre 2007 - Disclaimer

ORBIFLY MET'MAP TEAM :

Programmation & Développement : Alexandra Zaïnal
Conception & Développement : Baudouin d'Aumeries
Co-Programmation & Développement : Marc-Olivier Méhu
Soutien technique & logistique : Manuel Goepfert

Contact : metmap@orbifly.com




SOURCES & CREDITS :

   NOAA